Time;durP1;ratioP1;P1;durP2;ratioP2;P2;SDS_P1;SDS_P2;PMS_P1;PMS_P2;Temp;Humidity;BMP_temperature;BMP_pressure;BME280_temperature;BME280_humidity;BME280_pressure;Samples;Min_cycle;Max_cycle;Signal;HPM_P1;HPM_P2
2023/08/17 00:01:50;;;;;;;2.97;2.78;;;23.40;99.90;;;;;;5024545;28;20222;-70
2023/08/17 00:04:16;;;;;;;2.78;2.58;;;23.40;99.90;;;;;;5036942;28;20229;-70
2023/08/17 00:06:42;;;;;;;3.08;2.70;;;23.40;99.90;;;;;;5036750;28;20182;-70
2023/08/17 00:09:09;;;;;;;2.50;2.30;;;23.40;99.90;;;;;;5044756;28;20181;-71
2023/08/17 00:11:36;;;;;;;2.90;2.70;;;23.40;99.90;;;;;;5044467;28;20687;-71
2023/08/17 00:14:01;;;;;;;2.80;2.60;;;23.40;99.90;;;;;;5051157;28;20215;-71
2023/08/17 00:16:27;;;;;;;2.63;2.42;;;23.40;99.90;;;;;;5038952;28;20182;-71
2023/08/17 00:18:53;;;;;;;2.80;2.60;;;23.40;99.90;;;;;;5042103;28;20308;-70
2023/08/17 00:21:18;;;;;;;3.15;2.90;;;23.40;99.90;;;;;;5028131;28;20186;-70
2023/08/17 00:23:44;;;;;;;2.85;2.65;;;23.40;99.90;;;;;;5052980;28;20210;-70
2023/08/17 00:26:10;;;;;;;2.88;2.50;;;23.40;99.90;;;;;;5027974;28;20190;-71
2023/08/17 00:28:36;;;;;;;3.40;2.28;;;23.30;99.90;;;;;;5052027;28;20177;-70
2023/08/17 00:31:03;;;;;;;2.55;2.42;;;23.40;99.90;;;;;;5071374;28;20217;-71
2023/08/17 00:33:29;;;;;;;2.95;2.75;;;23.40;99.90;;;;;;5035810;28;20198;-70
2023/08/17 00:35:55;;;;;;;2.90;2.70;;;23.40;99.90;;;;;;5029613;28;20187;-70
2023/08/17 00:38:21;;;;;;;2.78;2.58;;;23.40;99.90;;;;;;5031138;28;20212;-70
2023/08/17 00:40:48;;;;;;;2.70;2.50;;;23.40;99.90;;;;;;5039056;28;20201;-69
2023/08/17 00:43:13;;;;;;;2.67;2.47;;;23.40;99.90;;;;;;5019872;28;20175;-70
2023/08/17 00:45:41;;;;;;;2.70;2.50;;;23.40;99.90;;;;;;5043737;28;20728;-70
2023/08/17 00:48:08;;;;;;;2.80;2.60;;;23.30;99.90;;;;;;5035781;28;20194;-70
2023/08/17 00:50:36;;;;;;;2.90;2.70;;;23.30;99.90;;;;;;5036144;28;20264;-70
2023/08/17 00:53:04;;;;;;;2.65;2.45;;;23.30;99.90;;;;;;5036840;28;20178;-70
2023/08/17 00:55:30;;;;;;;2.80;2.60;;;23.40;99.90;;;;;;5041491;28;20202;-70
2023/08/17 00:57:57;;;;;;;2.60;2.40;;;23.30;99.90;;;;;;5053204;28;20259;-71
2023/08/17 01:00:26;;;;;;;2.60;2.40;;;23.30;99.90;;;;;;5047230;28;20331;-70
2023/08/17 01:02:55;;;;;;;2.72;2.53;;;23.30;99.90;;;;;;5063191;28;20197;-70
2023/08/17 01:05:21;;;;;;;3.00;2.80;;;23.30;99.90;;;;;;5035616;28;20198;-70
2023/08/17 01:07:47;;;;;;;2.70;2.50;;;23.30;99.90;;;;;;5035532;28;20190;-70
2023/08/17 01:10:14;;;;;;;2.72;2.53;;;23.30;99.90;;;;;;5044039;28;20193;-70
2023/08/17 01:13:09;;;;;;;2.40;2.20;;;23.30;99.90;;;;;;5022961;28;20193;-69
2023/08/17 01:15:46;;;;;;;2.92;2.60;;;23.30;99.90;;;;;;5041837;28;20269;-70
2023/08/17 01:18:23;;;;;;;2.70;2.58;;;23.30;99.90;;;;;;5049181;28;20210;-70
2023/08/17 01:20:50;;;;;;;2.50;2.40;;;23.30;99.90;;;;;;5035375;28;20212;-70
2023/08/17 01:23:16;;;;;;;3.00;2.80;;;23.30;99.90;;;;;;5059764;28;20174;-70
2023/08/17 01:25:41;;;;;;;3.00;2.80;;;23.30;99.90;;;;;;5035337;28;20190;-70
2023/08/17 01:28:08;;;;;;;4.78;2.70;;;23.30;99.90;;;;;;5027821;28;20185;-70
2023/08/17 01:30:53;;;;;;;2.70;2.50;;;23.30;99.90;;;;;;5049238;28;20186;-70
2023/08/17 01:33:33;;;;;;;2.55;2.38;;;23.30;99.90;;;;;;5046450;28;20188;-70
2023/08/17 01:36:19;;;;;;;2.83;2.63;;;23.30;99.90;;;;;;5038587;28;20182;-69
2023/08/17 01:38:47;;;;;;;2.70;2.50;;;23.30;99.90;;;;;;5038802;28;20229;-70
2023/08/17 01:41:15;;;;;;;2.72;2.53;;;23.30;99.90;;;;;;5021681;28;20196;-70
2023/08/17 01:43:47;;;;;;;2.90;2.60;;;23.30;99.90;;;;;;5046600;28;20202;-69
2023/08/17 01:46:17;;;;;;;3.50;2.50;;;23.30;99.90;;;;;;5037676;28;20213;-70
2023/08/17 01:48:45;;;;;;;2.95;2.70;;;23.30;99.90;;;;;;5056332;28;20202;-70
2023/08/17 01:51:16;;;;;;;2.60;2.50;;;23.30;99.90;;;;;;5045276;28;20205;-70
2023/08/17 01:53:41;;;;;;;2.75;2.53;;;23.30;99.90;;;;;;5037732;28;20229;-70
2023/08/17 01:56:07;;;;;;;2.67;2.58;;;23.30;99.90;;;;;;5019315;28;20187;-70
2023/08/17 01:58:33;;;;;;;2.55;2.35;;;23.30;99.90;;;;;;5037022;28;20195;-70
2023/08/17 02:00:59;;;;;;;3.03;2.80;;;23.30;99.90;;;;;;5034640;28;20186;-70
2023/08/17 02:03:27;;;;;;;2.95;2.75;;;23.30;99.90;;;;;;5035112;28;20244;-70
2023/08/17 02:05:56;;;;;;;3.17;2.97;;;23.30;99.90;;;;;;5067358;28;20190;-69
2023/08/17 02:08:22;;;;;;;2.85;2.65;;;23.30;99.90;;;;;;5058870;28;20190;-71
2023/08/17 02:10:48;;;;;;;2.80;2.60;;;23.30;99.90;;;;;;5049884;28;20200;-70
2023/08/17 02:13:15;;;;;;;2.90;2.70;;;23.30;99.90;;;;;;5037238;28;20193;-70
2023/08/17 02:15:41;;;;;;;2.30;2.20;;;23.30;99.90;;;;;;5063722;28;20194;-70
2023/08/17 02:18:08;;;;;;;2.78;2.58;;;23.20;99.90;;;;;;5033796;28;20280;-71
2023/08/17 02:20:34;;;;;;;2.53;2.33;;;23.30;99.90;;;;;;5025952;28;20178;-70
2023/08/17 02:23:01;;;;;;;2.92;2.67;;;23.30;99.90;;;;;;5031566;28;20534;-70
2023/08/17 02:25:33;;;;;;;2.70;2.50;;;23.30;99.90;;;;;;5026356;28;20665;-70
2023/08/17 02:28:00;;;;;;;2.70;2.50;;;23.30;99.90;;;;;;5045056;28;20198;-70
2023/08/17 02:30:25;;;;;;;2.95;2.75;;;23.30;99.90;;;;;;5034330;28;20186;-70
2023/08/17 02:32:51;;;;;;;2.70;2.50;;;23.20;99.90;;;;;;5041958;28;20227;-70
2023/08/17 02:35:17;;;;;;;2.80;2.53;;;23.20;99.90;;;;;;5034052;28;20225;-70
2023/08/17 02:37:43;;;;;;;2.55;2.35;;;23.30;99.90;;;;;;5046166;28;20239;-70
2023/08/17 02:40:10;;;;;;;2.35;2.25;;;23.20;99.90;;;;;;5042374;28;20178;-70
2023/08/17 02:42:35;;;;;;;3.13;2.92;;;23.30;99.90;;;;;;5045520;28;20569;-70
2023/08/17 02:45:01;;;;;;;2.53;2.40;;;23.20;99.90;;;;;;5025011;28;20259;-70
2023/08/17 02:47:28;;;;;;;2.55;2.35;;;23.30;99.90;;;;;;5059903;28;20174;-70
2023/08/17 02:49:54;;;;;;;2.38;2.20;;;23.30;99.90;;;;;;5029766;28;20174;-70
2023/08/17 02:52:20;;;;;;;2.58;2.38;;;23.20;99.90;;;;;;5025721;28;20190;-68
2023/08/17 02:54:45;;;;;;;2.90;2.70;;;23.20;99.90;;;;;;5040295;28;20228;-71
2023/08/17 02:57:12;;;;;;;2.60;2.40;;;23.20;99.90;;;;;;5035376;28;20195;-70
2023/08/17 02:59:39;;;;;;;2.60;2.40;;;23.20;99.90;;;;;;5039794;28;20309;-70
2023/08/17 03:02:04;;;;;;;2.20;2.10;;;23.20;99.90;;;;;;5050574;28;20223;-70
2023/08/17 03:04:30;;;;;;;2.60;2.40;;;23.20;99.90;;;;;;5032387;28;20198;-70
2023/08/17 03:06:56;;;;;;;2.80;2.67;;;23.30;99.90;;;;;;5025126;28;20178;-70
2023/08/17 03:09:22;;;;;;;2.63;2.53;;;23.20;99.90;;;;;;5061491;28;20608;-69
2023/08/17 03:11:47;;;;;;;2.33;2.20;;;23.20;99.90;;;;;;5033525;28;20190;-70
2023/08/17 03:14:13;;;;;;;2.40;2.30;;;23.20;99.90;;;;;;5033216;28;20221;-70
2023/08/17 03:16:39;;;;;;;3.00;2.80;;;23.20;99.90;;;;;;5030639;28;20247;-70
2023/08/17 03:19:07;;;;;;;2.90;2.70;;;23.20;99.90;;;;;;5036068;28;20216;-70
2023/08/17 03:21:34;;;;;;;2.80;2.60;;;23.20;99.90;;;;;;5050121;28;20693;-70
2023/08/17 03:24:00;;;;;;;2.60;2.40;;;23.20;99.90;;;;;;5033303;28;20583;-70
2023/08/17 03:26:26;;;;;;;2.90;2.70;;;23.20;99.90;;;;;;5049791;28;20195;-70
2023/08/17 03:28:51;;;;;;;2.40;2.20;;;23.20;99.90;;;;;;5028764;28;20186;-70
2023/08/17 03:31:21;;;;;;;2.90;2.70;;;23.20;99.90;;;;;;5049894;28;20189;-70
2023/08/17 03:33:48;;;;;;;2.70;2.50;;;23.20;99.90;;;;;;5031042;28;20202;-71
2023/08/17 03:36:14;;;;;;;3.45;2.67;;;23.20;99.90;;;;;;5042912;28;20185;-70
2023/08/17 03:38:40;;;;;;;2.22;2.10;;;23.20;99.90;;;;;;5020552;28;20217;-70
2023/08/17 03:41:06;;;;;;;2.88;2.67;;;23.20;99.90;;;;;;5059109;28;20562;-70
2023/08/17 03:43:32;;;;;;;2.33;2.22;;;23.20;99.90;;;;;;5052874;28;20705;-70
2023/08/17 03:45:59;;;;;;;2.75;2.55;;;23.20;99.90;;;;;;5028170;28;20182;-70
2023/08/17 03:48:25;;;;;;;2.67;2.47;;;23.20;99.90;;;;;;5045148;28;20248;-70
2023/08/17 03:50:55;;;;;;;2.67;2.50;;;23.20;99.90;;;;;;5028509;28;20182;-71
2023/08/17 03:53:21;;;;;;;2.83;2.63;;;23.20;99.90;;;;;;5053439;28;20641;-70
2023/08/17 03:55:50;;;;;;;2.80;2.60;;;23.20;99.90;;;;;;5034893;28;20198;-71
2023/08/17 03:58:18;;;;;;;2.45;2.25;;;23.20;99.90;;;;;;5039843;28;20213;-70
2023/08/17 04:00:51;;;;;;;2.70;2.50;;;23.20;99.90;;;;;;5043214;28;20186;-70
2023/08/17 04:03:20;;;;;;;2.80;2.60;;;23.10;99.90;;;;;;5046255;28;20236;-70
2023/08/17 04:05:46;;;;;;;2.53;2.33;;;23.10;99.90;;;;;;5050966;28;20178;-70
2023/08/17 04:08:11;;;;;;;2.63;2.42;;;23.20;99.90;;;;;;5053109;28;20202;-70
2023/08/17 04:10:37;;;;;;;2.92;2.70;;;23.20;99.90;;;;;;5044657;28;20179;-71
2023/08/17 04:13:03;;;;;;;2.58;2.38;;;23.20;99.90;;;;;;5036303;28;20356;-70
2023/08/17 04:15:29;;;;;;;2.60;2.40;;;23.10;99.90;;;;;;5053001;28;20236;-70
2023/08/17 04:17:54;;;;;;;2.42;2.30;;;23.10;99.90;;;;;;5042866;28;20216;-70
2023/08/17 04:20:21;;;;;;;2.83;2.35;;;23.20;99.90;;;;;;5029107;28;20193;-69
2023/08/17 04:22:47;;;;;;;2.40;2.20;;;23.20;99.90;;;;;;5059539;28;20205;-70
2023/08/17 04:25:14;;;;;;;2.50;2.40;;;23.20;99.90;;;;;;5023792;28;20210;-70
2023/08/17 04:27:39;;;;;;;2.33;2.22;;;23.10;99.90;;;;;;5040964;28;20567;-70
2023/08/17 04:30:06;;;;;;;2.70;2.50;;;23.20;99.90;;;;;;5039800;28;20197;-70
2023/08/17 04:32:41;;;;;;;2.67;2.47;;;23.20;99.90;;;;;;5029233;28;20185;-70
2023/08/17 04:35:07;;;;;;;2.60;2.40;;;23.10;99.90;;;;;;5036536;28;20206;-70
2023/08/17 04:37:33;;;;;;;2.33;2.17;;;23.10;99.90;;;;;;5022683;28;20171;-70
2023/08/17 04:39:59;;;;;;;2.80;2.60;;;23.20;99.90;;;;;;5036035;28;20178;-70
2023/08/17 04:42:27;;;;;;;2.88;2.72;;;23.10;99.90;;;;;;5027510;28;20619;-70
2023/08/17 04:44:52;;;;;;;2.75;2.55;;;23.10;99.90;;;;;;5030815;28;20234;-70
2023/08/17 04:47:18;;;;;;;2.70;2.50;;;23.10;99.90;;;;;;5044145;28;20308;-70
2023/08/17 04:49:44;;;;;;;2.42;2.33;;;23.10;99.90;;;;;;5022621;28;20538;-70
2023/08/17 04:52:09;;;;;;;2.60;2.40;;;23.10;99.90;;;;;;5035628;28;20244;-69
2023/08/17 04:54:36;;;;;;;2.65;2.45;;;23.10;99.90;;;;;;5038305;28;20202;-70
2023/08/17 04:57:03;;;;;;;2.50;2.30;;;23.10;99.90;;;;;;5019600;28;20214;-71
2023/08/17 04:59:29;;;;;;;2.60;2.40;;;23.10;99.90;;;;;;5060421;28;20195;-70
2023/08/17 05:01:54;;;;;;;2.70;2.50;;;23.10;99.90;;;;;;5036044;28;20193;-70
2023/08/17 05:04:20;;;;;;;2.33;2.22;;;23.20;99.90;;;;;;5035201;28;20202;-70
2023/08/17 05:06:46;;;;;;;2.47;2.28;;;23.10;99.90;;;;;;5048875;28;20182;-70
2023/08/17 05:09:12;;;;;;;2.45;2.25;;;23.10;99.90;;;;;;5055144;28;20185;-69
2023/08/17 05:11:39;;;;;;;2.60;2.40;;;23.10;99.90;;;;;;5047847;28;20648;-70
2023/08/17 05:14:05;;;;;;;2.50;2.30;;;23.10;99.90;;;;;;5072017;28;20258;-70
2023/08/17 05:16:30;;;;;;;2.47;2.35;;;23.10;99.90;;;;;;5051938;28;20220;-70
2023/08/17 05:18:58;;;;;;;2.35;2.15;;;23.10;99.90;;;;;;5018938;28;20223;-70
2023/08/17 05:21:24;;;;;;;2.80;2.25;;;23.10;99.90;;;;;;5027116;28;20183;-70
2023/08/17 05:23:49;;;;;;;2.42;2.22;;;23.10;99.90;;;;;;5054911;28;20230;-71
2023/08/17 05:26:16;;;;;;;2.70;2.50;;;23.10;99.90;;;;;;5055835;28;20182;-69
2023/08/17 05:28:43;;;;;;;2.80;2.60;;;23.10;99.90;;;;;;5030931;28;20667;-70
2023/08/17 05:31:09;;;;;;;2.85;2.65;;;23.10;99.90;;;;;;5051831;28;20278;-70
2023/08/17 05:33:40;;;;;;;2.70;2.50;;;23.10;99.90;;;;;;5021234;28;20210;-70
2023/08/17 05:36:07;;;;;;;2.40;2.25;;;23.10;99.90;;;;;;5047523;28;20190;-69
2023/08/17 05:38:33;;;;;;;2.80;2.60;;;23.10;99.90;;;;;;5051133;28;20202;-69
2023/08/17 05:41:01;;;;;;;2.50;2.30;;;23.10;99.90;;;;;;5029647;28;20192;-70
2023/08/17 05:43:27;;;;;;;2.83;2.63;;;23.10;99.90;;;;;;5051180;28;20654;-70
2023/08/17 05:45:53;;;;;;;2.70;2.50;;;23.10;99.90;;;;;;5032550;28;20189;-70
2023/08/17 05:48:20;;;;;;;2.60;2.40;;;23.10;99.90;;;;;;5043810;28;20272;-71
2023/08/17 05:50:47;;;;;;;3.10;2.80;;;23.10;99.90;;;;;;5038030;28;20190;-70
2023/08/17 05:53:13;;;;;;;2.33;2.22;;;23.10;99.90;;;;;;5062803;28;20243;-70
2023/08/17 05:55:39;;;;;;;2.90;2.70;;;23.10;99.90;;;;;;5037853;28;20185;-70
2023/08/17 05:58:04;;;;;;;2.55;2.45;;;23.10;99.90;;;;;;5054508;28;20235;-70
2023/08/17 06:00:30;;;;;;;2.30;2.20;;;23.10;99.90;;;;;;5035689;28;20265;-70
2023/08/17 06:03:01;;;;;;;2.40;2.30;;;23.10;99.90;;;;;;5048367;28;20182;-70
2023/08/17 06:05:28;;;;;;;4.53;2.60;;;23.10;99.90;;;;;;5036155;28;20290;-70
2023/08/17 06:07:55;;;;;;;2.50;2.30;;;23.10;99.90;;;;;;5044924;28;20182;-70
2023/08/17 06:10:24;;;;;;;2.58;2.40;;;23.10;99.90;;;;;;5050654;28;20223;-70
2023/08/17 06:12:53;;;;;;;3.05;2.35;;;23.10;99.90;;;;;;5034020;28;20269;-70
2023/08/17 06:15:19;;;;;;;2.40;2.30;;;23.10;99.90;;;;;;5060137;28;20231;-69
2023/08/17 06:17:45;;;;;;;2.65;2.47;;;23.10;99.90;;;;;;5064150;28;20185;-69
2023/08/17 06:20:11;;;;;;;2.75;2.60;;;23.10;99.90;;;;;;5062432;28;20221;-69
2023/08/17 06:22:37;;;;;;;2.70;2.50;;;23.10;99.90;;;;;;5063283;28;20185;-69
2023/08/17 06:25:05;;;;;;;2.85;2.65;;;23.20;99.90;;;;;;5050937;28;20206;-69
2023/08/17 06:27:32;;;;;;;2.60;2.40;;;23.10;99.90;;;;;;5021249;28;20188;-69
2023/08/17 06:29:57;;;;;;;2.70;2.50;;;23.10;99.90;;;;;;5040704;28;20190;-69
2023/08/17 06:32:23;;;;;;;2.60;2.40;;;23.10;99.90;;;;;;5033886;28;20186;-69
2023/08/17 06:34:49;;;;;;;2.63;2.42;;;23.10;99.90;;;;;;5017495;28;20203;-69
2023/08/17 06:37:15;;;;;;;2.90;2.58;;;23.20;99.90;;;;;;5033919;28;20208;-69
2023/08/17 06:39:40;;;;;;;2.85;2.65;;;23.20;99.90;;;;;;5036285;28;20216;-69
2023/08/17 06:42:06;;;;;;;2.70;2.50;;;23.20;99.90;;;;;;5039197;28;20190;-69
2023/08/17 06:44:32;;;;;;;2.88;2.67;;;23.10;99.90;;;;;;5034918;28;20202;-69
2023/08/17 06:46:58;;;;;;;2.90;2.70;;;23.20;99.90;;;;;;5045751;28;20205;-69
2023/08/17 06:49:27;;;;;;;2.90;2.70;;;23.20;99.90;;;;;;5044664;28;20247;-69
2023/08/17 06:51:53;;;;;;;2.67;2.47;;;23.20;99.90;;;;;;5022165;28;20177;-69
2023/08/17 06:54:18;;;;;;;3.10;2.90;;;23.20;99.90;;;;;;5045313;28;20206;-69
2023/08/17 06:56:44;;;;;;;2.50;2.33;;;23.20;99.90;;;;;;5033554;28;20194;-69
2023/08/17 06:59:10;;;;;;;3.00;2.80;;;23.20;99.90;;;;;;5042132;28;20294;-69
2023/08/17 07:01:36;;;;;;;2.88;2.67;;;23.20;99.90;;;;;;5033186;28;20185;-69
2023/08/17 07:04:02;;;;;;;2.65;2.45;;;23.20;99.90;;;;;;5022848;28;20217;-70
2023/08/17 07:06:28;;;;;;;3.28;3.08;;;23.20;99.90;;;;;;5041511;28;20187;-69
2023/08/17 07:08:54;;;;;;;3.38;3.05;;;23.20;99.90;;;;;;5055571;28;20195;-69
2023/08/17 07:11:20;;;;;;;3.42;3.22;;;23.20;99.90;;;;;;5036702;28;20214;-69
2023/08/17 07:13:46;;;;;;;3.65;3.35;;;23.20;99.90;;;;;;5044050;28;20236;-69
2023/08/17 07:16:12;;;;;;;4.60;3.30;;;23.20;99.90;;;;;;5045966;28;20186;-69
2023/08/17 07:18:38;;;;;;;3.60;3.40;;;23.20;99.90;;;;;;5033267;28;20218;-69
2023/08/17 07:21:04;;;;;;;3.88;3.53;;;23.20;99.90;;;;;;5063027;28;20192;-70
2023/08/17 07:23:30;;;;;;;3.67;3.40;;;23.20;99.90;;;;;;5043737;28;20207;-69
2023/08/17 07:25:55;;;;;;;4.13;3.65;;;23.20;99.90;;;;;;5037732;28;20177;-71
2023/08/17 07:28:21;;;;;;;4.05;3.75;;;23.20;99.90;;;;;;5037195;28;20182;-69
2023/08/17 07:30:47;;;;;;;4.10;3.80;;;23.30;99.90;;;;;;5036382;28;20241;-69
2023/08/17 07:33:12;;;;;;;3.70;3.40;;;23.20;99.90;;;;;;5042591;28;20209;-69
2023/08/17 07:35:38;;;;;;;4.10;3.70;;;23.30;99.90;;;;;;5054954;28;20286;-69
2023/08/17 07:38:04;;;;;;;6.38;4.05;;;23.30;99.90;;;;;;5017147;28;20206;-69
2023/08/17 07:40:29;;;;;;;4.18;3.78;;;23.30;99.90;;;;;;5033205;28;20181;-69
2023/08/17 07:42:55;;;;;;;3.70;3.40;;;23.30;99.90;;;;;;5037203;28;20566;-69
2023/08/17 07:45:21;;;;;;;3.80;3.50;;;23.30;99.90;;;;;;5047835;28;20206;-70
2023/08/17 07:47:46;;;;;;;4.10;3.80;;;23.30;99.90;;;;;;5057723;28;20174;-70
2023/08/17 07:50:12;;;;;;;4.07;3.78;;;23.30;99.90;;;;;;5033199;28;20658;-69
2023/08/17 07:52:38;;;;;;;3.70;3.40;;;23.30;99.90;;;;;;5065862;28;20182;-69
2023/08/17 07:55:05;;;;;;;3.72;3.42;;;23.30;99.90;;;;;;5033074;28;20228;-69
2023/08/17 07:57:30;;;;;;;4.00;3.70;;;23.40;99.90;;;;;;5047001;28;20733;-69
2023/08/17 07:59:56;;;;;;;4.25;3.95;;;23.40;99.90;;;;;;5045252;28;20202;-70
2023/08/17 08:02:22;;;;;;;3.60;3.30;;;23.30;99.90;;;;;;5025975;28;20178;-69
2023/08/17 08:04:47;;;;;;;4.43;4.13;;;23.40;99.90;;;;;;5041034;28;20202;-69
2023/08/17 08:07:13;;;;;;;3.83;3.60;;;23.40;99.90;;;;;;5033446;28;20178;-69
2023/08/17 08:09:39;;;;;;;4.45;4.03;;;23.40;99.90;;;;;;5021922;28;20244;-69
2023/08/17 08:12:07;;;;;;;4.18;3.78;;;23.40;99.90;;;;;;5018439;28;20186;-70
2023/08/17 08:14:34;;;;;;;3.88;3.58;;;23.40;99.90;;;;;;5046454;28;20210;-69
2023/08/17 08:17:00;;;;;;;3.83;3.53;;;23.40;99.90;;;;;;5041240;28;20240;-69
2023/08/17 08:19:26;;;;;;;3.97;3.67;;;23.50;99.90;;;;;;5044161;28;20213;-69
2023/08/17 08:21:52;;;;;;;4.20;3.80;;;23.50;99.90;;;;;;5041660;28;20187;-69
2023/08/17 08:24:17;;;;;;;3.95;3.55;;;23.50;99.90;;;;;;5039775;28;20206;-68
2023/08/17 08:26:43;;;;;;;3.88;3.58;;;23.50;99.90;;;;;;5054641;28;20253;-69
2023/08/17 08:29:09;;;;;;;3.92;3.63;;;23.50;99.90;;;;;;5057513;28;20582;-69
2023/08/17 08:31:35;;;;;;;4.05;3.75;;;23.50;99.90;;;;;;5046645;28;20254;-69
2023/08/17 08:34:01;;;;;;;4.20;3.88;;;23.50;99.90;;;;;;5030955;28;20214;-69
2023/08/17 08:36:26;;;;;;;4.35;4.05;;;23.50;99.90;;;;;;5056272;28;20197;-69
2023/08/17 08:38:52;;;;;;;5.03;3.90;;;23.40;99.90;;;;;;5052465;28;20214;-69
2023/08/17 08:41:19;;;;;;;4.55;4.18;;;23.50;99.90;;;;;;5047842;28;20177;-69
2023/08/17 08:43:45;;;;;;;4.00;3.70;;;23.50;99.90;;;;;;5050527;28;20245;-69
2023/08/17 08:46:13;;;;;;;3.90;3.60;;;23.50;99.90;;;;;;5042173;28;20178;-69
2023/08/17 08:48:41;;;;;;;3.78;3.55;;;23.50;99.90;;;;;;5027819;28;20178;-69
2023/08/17 08:51:13;;;;;;;4.55;4.15;;;23.50;99.90;;;;;;5036153;28;20182;-69
2023/08/17 08:53:45;;;;;;;4.63;3.38;;;23.50;99.90;;;;;;5035662;28;20218;-69
2023/08/17 08:56:19;;;;;;;4.03;3.72;;;23.50;99.90;;;;;;5035763;28;20186;-69
2023/08/17 08:58:47;;;;;;;4.15;3.70;;;23.60;99.90;;;;;;5071344;28;20212;-69
2023/08/17 09:01:14;;;;;;;3.58;3.33;;;23.60;99.90;;;;;;5052252;28;20174;-69
2023/08/17 09:03:41;;;;;;;4.20;3.80;;;23.50;99.90;;;;;;5043603;28;20214;-69
2023/08/17 09:06:09;;;;;;;4.65;3.97;;;23.50;99.90;;;;;;5051548;28;20292;-69
2023/08/17 09:08:35;;;;;;;3.80;3.50;;;23.50;99.90;;;;;;5043659;28;20215;-69
2023/08/17 09:11:01;;;;;;;4.03;3.72;;;23.50;99.90;;;;;;5056029;28;20188;-69
2023/08/17 09:13:27;;;;;;;4.15;3.75;;;23.50;99.90;;;;;;5055038;28;20189;-69
2023/08/17 09:15:52;;;;;;;4.07;3.78;;;23.50;99.90;;;;;;5038846;28;20197;-69
2023/08/17 09:18:19;;;;;;;4.32;3.92;;;23.50;99.90;;;;;;5055076;28;20216;-69
2023/08/17 09:20:47;;;;;;;4.00;3.70;;;23.50;99.90;;;;;;5047003;28;20656;-68
2023/08/17 09:23:16;;;;;;;4.13;3.72;;;23.50;99.90;;;;;;5038370;28;20177;-71
2023/08/17 09:25:44;;;;;;;3.78;3.47;;;23.50;99.90;;;;;;5037505;28;20208;-69
2023/08/17 09:28:14;;;;;;;3.85;3.58;;;23.50;99.90;;;;;;5031763;28;20182;-69
2023/08/17 09:30:54;;;;;;;4.45;3.53;;;23.50;99.90;;;;;;5051488;28;20277;-69
2023/08/17 09:33:23;;;;;;;4.10;3.75;;;23.50;99.90;;;;;;5031390;28;20190;-69
2023/08/17 09:35:50;;;;;;;3.78;3.58;;;23.50;99.90;;;;;;5036016;28;20174;-69
2023/08/17 09:38:17;;;;;;;3.83;3.63;;;23.50;99.90;;;;;;5061487;28;20206;-69
2023/08/17 09:40:43;;;;;;;3.78;3.47;;;23.50;99.90;;;;;;5043350;28;20214;-69
2023/08/17 09:43:10;;;;;;;4.00;3.70;;;23.50;99.90;;;;;;5034561;28;20183;-69
2023/08/17 09:45:38;;;;;;;4.32;4.03;;;23.50;99.90;;;;;;5039946;28;20179;-69
2023/08/17 09:48:04;;;;;;;3.85;3.55;;;23.50;99.90;;;;;;5055134;28;20683;-69
2023/08/17 09:50:30;;;;;;;4.00;3.60;;;23.50;99.90;;;;;;5046484;28;20185;-69
2023/08/17 09:52:55;;;;;;;4.13;3.50;;;23.50;99.90;;;;;;5035250;28;20193;-69
2023/08/17 09:55:23;;;;;;;3.63;3.42;;;23.50;99.90;;;;;;5034663;28;20209;-69
2023/08/17 09:57:51;;;;;;;3.72;3.50;;;23.50;99.90;;;;;;5050903;28;20268;-69
2023/08/17 10:00:19;;;;;;;12.75;3.70;;;23.50;99.90;;;;;;5031894;28;20181;-69
2023/08/17 10:02:49;;;;;;;4.38;4.00;;;23.50;99.90;;;;;;5044740;28;20235;-69
2023/08/17 10:05:19;;;;;;;4.00;3.60;;;23.50;99.90;;;;;;5039342;28;20289;-69
2023/08/17 10:07:54;;;;;;;3.90;3.50;;;23.50;99.90;;;;;;5052350;28;20189;-69
2023/08/17 10:10:26;;;;;;;3.80;3.50;;;23.50;99.90;;;;;;5057269;28;20190;-70
2023/08/17 10:13:10;;;;;;;3.83;3.53;;;23.50;99.90;;;;;;5044085;28;20196;-69
2023/08/17 10:15:53;;;;;;;4.32;4.03;;;23.50;99.90;;;;;;5038202;28;20183;-69
2023/08/17 10:18:31;;;;;;;4.15;3.75;;;23.60;99.90;;;;;;5042555;28;20225;-69
2023/08/17 10:21:13;;;;;;;4.13;3.72;;;23.50;99.90;;;;;;5050793;28;20189;-69
2023/08/17 10:23:39;;;;;;;3.97;3.67;;;23.50;99.90;;;;;;5047028;28;20289;-69
2023/08/17 10:26:08;;;;;;;4.63;4.20;;;23.50;99.90;;;;;;5034328;28;20182;-69
2023/08/17 10:28:34;;;;;;;4.25;3.85;;;23.50;99.90;;;;;;5034194;28;20178;-68
2023/08/17 10:31:00;;;;;;;3.75;3.55;;;23.50;99.90;;;;;;5050243;28;20189;-69
2023/08/17 10:33:29;;;;;;;4.47;4.00;;;23.50;99.90;;;;;;5033809;28;20201;-70
2023/08/17 10:35:56;;;;;;;3.70;3.40;;;23.50;99.90;;;;;;5034058;28;20189;-69
2023/08/17 10:38:22;;;;;;;3.65;3.45;;;23.50;99.90;;;;;;5031335;28;20214;-68
2023/08/17 10:41:12;;;;;;;3.90;3.60;;;23.50;99.90;;;;;;5038253;28;20194;-69
2023/08/17 10:43:55;;;;;;;4.10;3.80;;;23.60;99.90;;;;;;5049497;28;20239;-69
2023/08/17 10:46:21;;;;;;;3.95;3.65;;;23.60;99.90;;;;;;5041479;28;20273;-69
2023/08/17 10:48:46;;;;;;;4.32;3.92;;;23.60;99.90;;;;;;5016989;28;20269;-69
2023/08/17 10:51:16;;;;;;;3.90;3.67;;;23.50;99.90;;;;;;5036404;28;20194;-69
2023/08/17 10:53:45;;;;;;;4.00;3.75;;;23.60;99.90;;;;;;5028568;28;20222;-69
2023/08/17 10:56:14;;;;;;;4.38;3.97;;;23.60;99.90;;;;;;5059275;28;20194;-69
2023/08/17 10:58:42;;;;;;;5.70;3.92;;;23.60;99.90;;;;;;5046622;28;20272;-69
2023/08/17 11:01:09;;;;;;;4.20;3.90;;;23.60;99.90;;;;;;5042168;28;20174;-69
2023/08/17 11:03:36;;;;;;;4.20;3.90;;;23.60;99.90;;;;;;5050061;28;20206;-69
2023/08/17 11:06:17;;;;;;;4.65;4.25;;;23.50;99.90;;;;;;5043472;28;20236;-69
2023/08/17 11:08:55;;;;;;;4.07;3.67;;;23.50;99.90;;;;;;5041920;28;20222;-70
2023/08/17 11:11:25;;;;;;;3.47;3.28;;;23.60;99.90;;;;;;5030299;28;20281;-69
2023/08/17 11:13:53;;;;;;;3.80;3.60;;;23.60;99.90;;;;;;5049489;28;20213;-69
2023/08/17 11:16:19;;;;;;;4.38;4.07;;;23.60;99.90;;;;;;5027041;28;20232;-69
2023/08/17 11:18:47;;;;;;;4.43;4.03;;;23.60;99.90;;;;;;5029797;28;20213;-70
2023/08/17 11:21:14;;;;;;;4.15;3.55;;;23.60;99.90;;;;;;5058420;28;20308;-69
2023/08/17 11:23:40;;;;;;;4.53;4.13;;;23.60;99.90;;;;;;5033410;28;20214;-70
2023/08/17 11:26:07;;;;;;;4.07;3.67;;;23.60;99.90;;;;;;5052593;28;20197;-69
2023/08/17 11:28:38;;;;;;;3.97;3.78;;;23.60;99.90;;;;;;5053464;28;20192;-69
2023/08/17 11:31:09;;;;;;;4.28;3.95;;;23.60;99.90;;;;;;5041706;28;20197;-69
2023/08/17 11:33:40;;;;;;;4.50;4.10;;;23.60;99.90;;;;;;5024826;28;20313;-69
2023/08/17 11:36:09;;;;;;;4.35;3.97;;;23.60;99.90;;;;;;5025001;28;20186;-69
2023/08/17 11:38:43;;;;;;;4.45;3.80;;;23.60;99.90;;;;;;5057531;28;20266;-69
2023/08/17 11:41:10;;;;;;;4.25;3.90;;;23.60;99.90;;;;;;5041788;28;20190;-69
2023/08/17 11:43:36;;;;;;;4.30;3.90;;;23.60;99.90;;;;;;5036577;28;20198;-70
2023/08/17 11:46:03;;;;;;;4.38;4.07;;;23.60;99.90;;;;;;5044455;28;20190;-68
2023/08/17 11:48:29;;;;;;;4.20;3.90;;;23.60;99.90;;;;;;5033143;28;20651;-69
2023/08/17 11:50:55;;;;;;;4.10;3.83;;;23.60;99.90;;;;;;5016619;28;20186;-70
2023/08/17 11:53:22;;;;;;;4.25;3.92;;;23.60;99.90;;;;;;5041052;28;20190;-70
2023/08/17 11:55:48;;;;;;;4.30;4.00;;;23.60;99.90;;;;;;5041411;28;20261;-70
2023/08/17 11:58:15;;;;;;;4.20;3.90;;;23.60;99.90;;;;;;5042677;28;20210;-71
2023/08/17 12:00:46;;;;;;;4.10;3.80;;;23.60;99.90;;;;;;5040449;28;20201;-70
2023/08/17 12:03:16;;;;;;;3.92;3.63;;;23.60;99.90;;;;;;5061516;28;20295;-69
2023/08/17 12:05:44;;;;;;;3.58;3.38;;;23.60;99.90;;;;;;5035878;28;20181;-69
2023/08/17 12:08:10;;;;;;;4.60;3.88;;;23.60;99.90;;;;;;5048417;28;20193;-69
2023/08/17 12:10:38;;;;;;;4.38;4.00;;;23.60;99.90;;;;;;5066100;28;20334;-70
2023/08/17 12:13:04;;;;;;;3.70;3.50;;;23.70;99.90;;;;;;5063745;28;20186;-70
2023/08/17 12:15:35;;;;;;;4.18;3.88;;;23.60;99.90;;;;;;5033946;28;20208;-69
2023/08/17 12:18:04;;;;;;;3.88;3.58;;;23.60;99.90;;;;;;5021585;28;20187;-69
2023/08/17 12:20:32;;;;;;;3.88;3.58;;;23.60;99.90;;;;;;5061175;28;20233;-69
2023/08/17 12:22:59;;;;;;;4.40;4.00;;;23.60;99.90;;;;;;5035272;28;20189;-69
2023/08/17 12:25:26;;;;;;;4.55;4.25;;;23.60;99.90;;;;;;5045650;28;20202;-69
2023/08/17 12:27:52;;;;;;;4.20;3.90;;;23.60;99.90;;;;;;5039706;28;20185;-70
2023/08/17 12:30:32;;;;;;;4.38;4.07;;;23.60;99.90;;;;;;5052755;28;20196;-69
2023/08/17 12:32:58;;;;;;;4.10;3.70;;;23.60;99.90;;;;;;5041588;28;20186;-69
2023/08/17 12:35:26;;;;;;;3.53;3.33;;;23.60;99.90;;;;;;5052716;28;20208;-70
2023/08/17 12:37:55;;;;;;;4.60;4.13;;;23.60;99.90;;;;;;5038768;28;20182;-69
2023/08/17 12:40:21;;;;;;;3.70;3.50;;;23.60;99.90;;;;;;5040089;28;20264;-69
2023/08/17 12:42:48;;;;;;;4.10;3.80;;;23.60;99.90;;;;;;5054185;28;20196;-69
2023/08/17 12:45:15;;;;;;;3.45;3.25;;;23.60;99.90;;;;;;5023384;28;20330;-70
2023/08/17 12:47:41;;;;;;;3.90;3.60;;;23.60;99.90;;;;;;5033008;28;20186;-70
2023/08/17 12:50:08;;;;;;;3.75;3.50;;;23.60;99.90;;;;;;5059379;28;20228;-69